sensor_id;sensor_type;location;lat;lon;timestamp;pressure;altitude;pressure_sealevel;temperature;humidity
58223;BME280;44020;50.890;15.796;2022-11-20T00:01:16;97217.47;;;-5.56;72.05
58223;BME280;44020;50.890;15.796;2022-11-20T00:03:44;97217.62;;;-5.54;72.33
58223;BME280;44020;50.890;15.796;2022-11-20T00:06:14;97212.94;;;-5.53;72.42
58223;BME280;44020;50.890;15.796;2022-11-20T00:08:42;97213.59;;;-5.51;72.87
58223;BME280;44020;50.890;15.796;2022-11-20T00:11:13;97209.76;;;-5.49;72.86
58223;BME280;44020;50.890;15.796;2022-11-20T00:13:41;97208.21;;;-5.50;72.67
58223;BME280;44020;50.890;15.796;2022-11-20T00:16:10;97206.48;;;-5.49;72.58
58223;BME280;44020;50.890;15.796;2022-11-20T00:18:37;97204.45;;;-5.53;72.35
58223;BME280;44020;50.890;15.796;2022-11-20T00:21:12;97203.44;;;-5.55;72.20
58223;BME280;44020;50.890;15.796;2022-11-20T00:23:40;97203.16;;;-5.60;71.90
58223;BME280;44020;50.890;15.796;2022-11-20T00:26:13;97211.49;;;-5.61;72.03
58223;BME280;44020;50.890;15.796;2022-11-20T00:28:41;97212.16;;;-5.60;72.04
58223;BME280;44020;50.890;15.796;2022-11-20T00:31:12;97209.17;;;-5.57;72.00
58223;BME280;44020;50.890;15.796;2022-11-20T00:33:40;97207.25;;;-5.55;71.85
58223;BME280;44020;50.890;15.796;2022-11-20T00:36:10;97208.95;;;-5.53;71.84
58223;BME280;44020;50.890;15.796;2022-11-20T00:38:38;97207.21;;;-5.53;71.82
58223;BME280;44020;50.890;15.796;2022-11-20T00:41:08;97208.10;;;-5.54;71.38
58223;BME280;44020;50.890;15.796;2022-11-20T00:43:36;97204.89;;;-5.60;71.27
58223;BME280;44020;50.890;15.796;2022-11-20T00:46:16;97206.86;;;-5.64;71.29
58223;BME280;44020;50.890;15.796;2022-11-20T00:48:44;97205.71;;;-5.69;71.11
58223;BME280;44020;50.890;15.796;2022-11-20T00:51:14;97212.23;;;-5.78;71.15
58223;BME280;44020;50.890;15.796;2022-11-20T00:53:42;97217.00;;;-5.84;71.26
58223;BME280;44020;50.890;15.796;2022-11-20T00:56:15;97216.46;;;-5.83;71.20
58223;BME280;44020;50.890;15.796;2022-11-20T00:58:44;97219.58;;;-5.82;71.40
58223;BME280;44020;50.890;15.796;2022-11-20T01:01:16;97217.33;;;-5.83;71.52
58223;BME280;44020;50.890;15.796;2022-11-20T01:03:46;97213.30;;;-5.80;71.52
58223;BME280;44020;50.890;15.796;2022-11-20T01:06:19;97214.50;;;-5.79;71.35
58223;BME280;44020;50.890;15.796;2022-11-20T01:08:48;97225.59;;;-5.81;71.13
58223;BME280;44020;50.890;15.796;2022-11-20T01:11:19;97224.83;;;-5.88;70.98
58223;BME280;44020;50.890;15.796;2022-11-20T01:13:48;97225.55;;;-5.91;71.24
58223;BME280;44020;50.890;15.796;2022-11-20T01:16:18;97231.09;;;-5.90;71.15
58223;BME280;44020;50.890;15.796;2022-11-20T01:18:48;97230.65;;;-5.94;70.89
58223;BME280;44020;50.890;15.796;2022-11-20T01:21:28;97232.33;;;-6.04;70.84
58223;BME280;44020;50.890;15.796;2022-11-20T01:23:56;97230.88;;;-6.13;70.82
58223;BME280;44020;50.890;15.796;2022-11-20T01:26:26;97232.79;;;-6.14;71.04
58223;BME280;44020;50.890;15.796;2022-11-20T01:28:55;97228.98;;;-6.15;71.09
58223;BME280;44020;50.890;15.796;2022-11-20T01:31:25;97225.08;;;-6.19;71.00
58223;BME280;44020;50.890;15.796;2022-11-20T01:33:55;97224.26;;;-6.23;70.93
58223;BME280;44020;50.890;15.796;2022-11-20T01:36:25;97221.99;;;-6.22;71.18
58223;BME280;44020;50.890;15.796;2022-11-20T01:38:54;97214.83;;;-6.30;70.81
58223;BME280;44020;50.890;15.796;2022-11-20T01:41:23;97211.91;;;-6.32;71.29
58223;BME280;44020;50.890;15.796;2022-11-20T01:44:12;97208.92;;;-6.27;71.47
58223;BME280;44020;50.890;15.796;2022-11-20T01:47:12;97208.08;;;-6.30;71.72
58223;BME280;44020;50.890;15.796;2022-11-20T01:49:51;97203.58;;;-6.28;72.04
58223;BME280;44020;50.890;15.796;2022-11-20T01:52:44;97200.51;;;-6.32;72.17
58223;BME280;44020;50.890;15.796;2022-11-20T01:55:20;97200.72;;;-6.36;72.33
58223;BME280;44020;50.890;15.796;2022-11-20T01:57:49;97199.21;;;-6.39;72.31
58223;BME280;44020;50.890;15.796;2022-11-20T02:00:18;97196.63;;;-6.40;72.36
58223;BME280;44020;50.890;15.796;2022-11-20T02:02:51;97194.51;;;-6.37;72.50
58223;BME280;44020;50.890;15.796;2022-11-20T02:07:52;97195.84;;;-6.32;72.23
58223;BME280;44020;50.890;15.796;2022-11-20T02:10:21;97196.53;;;-6.32;71.98
58223;BME280;44020;50.890;15.796;2022-11-20T02:12:48;97200.12;;;-6.29;71.73
58223;BME280;44020;50.890;15.796;2022-11-20T02:15:34;97197.83;;;-6.25;71.82
58223;BME280;44020;50.890;15.796;2022-11-20T02:18:02;97201.16;;;-6.29;71.49
58223;BME280;44020;50.890;15.796;2022-11-20T02:20:29;97202.55;;;-6.29;71.43
58223;BME280;44020;50.890;15.796;2022-11-20T02:23:08;97201.52;;;-6.30;71.58
58223;BME280;44020;50.890;15.796;2022-11-20T02:25:38;97199.45;;;-6.31;71.32
58223;BME280;44020;50.890;15.796;2022-11-20T02:28:06;97200.35;;;-6.34;71.37
58223;BME280;44020;50.890;15.796;2022-11-20T02:30:33;97200.20;;;-6.34;71.31
58223;BME280;44020;50.890;15.796;2022-11-20T02:33:01;97201.02;;;-6.33;71.55
58223;BME280;44020;50.890;15.796;2022-11-20T02:37:57;97201.38;;;-6.32;71.45
58223;BME280;44020;50.890;15.796;2022-11-20T02:40:25;97196.88;;;-6.32;71.44
58223;BME280;44020;50.890;15.796;2022-11-20T02:42:56;97196.86;;;-6.31;71.36
58223;BME280;44020;50.890;15.796;2022-11-20T02:45:24;97198.92;;;-6.31;71.35
58223;BME280;44020;50.890;15.796;2022-11-20T02:47:52;97192.21;;;-6.32;71.19
58223;BME280;44020;50.890;15.796;2022-11-20T02:50:19;97191.38;;;-6.35;71.33
58223;BME280;44020;50.890;15.796;2022-11-20T02:52:46;97192.77;;;-6.34;71.17
58223;BME280;44020;50.890;15.796;2022-11-20T02:55:13;97190.32;;;-6.33;71.37
58223;BME280;44020;50.890;15.796;2022-11-20T02:57:41;97190.66;;;-6.32;71.17
58223;BME280;44020;50.890;15.796;2022-11-20T03:03:22;97191.05;;;-6.36;71.08
58223;BME280;44020;50.890;15.796;2022-11-20T03:05:49;97187.95;;;-6.37;71.34
58223;BME280;44020;50.890;15.796;2022-11-20T03:08:16;97183.80;;;-6.38;71.30
58223;BME280;44020;50.890;15.796;2022-11-20T03:10:43;97185.73;;;-6.39;71.13
58223;BME280;44020;50.890;15.796;2022-11-20T03:13:10;97186.81;;;-6.43;70.94
58223;BME280;44020;50.890;15.796;2022-11-20T03:15:37;97185.49;;;-6.49;71.11
58223;BME280;44020;50.890;15.796;2022-11-20T03:18:04;97185.55;;;-6.54;70.88
58223;BME280;44020;50.890;15.796;2022-11-20T03:20:33;97186.23;;;-6.52;71.00
58223;BME280;44020;50.890;15.796;2022-11-20T03:23:01;97187.20;;;-6.46;71.38
58223;BME280;44020;50.890;15.796;2022-11-20T03:25:28;97187.85;;;-6.45;71.66
58223;BME280;44020;50.890;15.796;2022-11-20T03:27:56;97189.23;;;-6.42;71.75
58223;BME280;44020;50.890;15.796;2022-11-20T03:30:23;97192.67;;;-6.42;72.05
58223;BME280;44020;50.890;15.796;2022-11-20T03:32:53;97191.11;;;-6.42;72.05
58223;BME280;44020;50.890;15.796;2022-11-20T03:35:20;97191.84;;;-6.45;72.05
58223;BME280;44020;50.890;15.796;2022-11-20T03:37:47;97189.63;;;-6.48;72.34
58223;BME280;44020;50.890;15.796;2022-11-20T03:40:15;97189.10;;;-6.47;72.43
58223;BME280;44020;50.890;15.796;2022-11-20T03:42:42;97186.14;;;-6.44;72.43
58223;BME280;44020;50.890;15.796;2022-11-20T03:45:14;97185.41;;;-6.41;72.58
58223;BME280;44020;50.890;15.796;2022-11-20T03:47:42;97185.77;;;-6.44;72.52
58223;BME280;44020;50.890;15.796;2022-11-20T03:50:11;97189.74;;;-6.43;72.93
58223;BME280;44020;50.890;15.796;2022-11-20T03:52:41;97195.60;;;-6.41;72.73
58223;BME280;44020;50.890;15.796;2022-11-20T03:55:08;97191.10;;;-6.40;72.88
58223;BME280;44020;50.890;15.796;2022-11-20T03:57:36;97190.97;;;-6.44;72.69
58223;BME280;44020;50.890;15.796;2022-11-20T04:00:04;97186.81;;;-6.44;72.75
58223;BME280;44020;50.890;15.796;2022-11-20T04:02:32;97189.05;;;-6.42;72.84
58223;BME280;44020;50.890;15.796;2022-11-20T04:04:59;97190.24;;;-6.41;73.11
58223;BME280;44020;50.890;15.796;2022-11-20T04:07:26;97190.55;;;-6.38;73.07
58223;BME280;44020;50.890;15.796;2022-11-20T04:09:53;97189.00;;;-6.39;72.84
58223;BME280;44020;50.890;15.796;2022-11-20T04:12:20;97187.77;;;-6.37;72.88
58223;BME280;44020;50.890;15.796;2022-11-20T04:14:47;97188.67;;;-6.39;72.76
58223;BME280;44020;50.890;15.796;2022-11-20T04:17:14;97187.64;;;-6.40;72.94
58223;BME280;44020;50.890;15.796;2022-11-20T04:19:42;97186.93;;;-6.39;72.77
58223;BME280;44020;50.890;15.796;2022-11-20T04:22:09;97188.19;;;-6.43;72.71
58223;BME280;44020;50.890;15.796;2022-11-20T04:24:38;97191.54;;;-6.49;72.60
58223;BME280;44020;50.890;15.796;2022-11-20T04:27:05;97188.94;;;-6.49;72.76
58223;BME280;44020;50.890;15.796;2022-11-20T04:29:32;97192.88;;;-6.45;72.92
58223;BME280;44020;50.890;15.796;2022-11-20T04:31:59;97194.25;;;-6.43;72.93
58223;BME280;44020;50.890;15.796;2022-11-20T04:34:26;97188.90;;;-6.45;72.87
58223;BME280;44020;50.890;15.796;2022-11-20T04:36:53;97186.34;;;-6.48;72.65
58223;BME280;44020;50.890;15.796;2022-11-20T04:39:20;97188.83;;;-6.54;72.69
58223;BME280;44020;50.890;15.796;2022-11-20T04:41:48;97190.13;;;-6.61;72.59
58223;BME280;44020;50.890;15.796;2022-11-20T04:44:35;97182.59;;;-6.68;72.64
58223;BME280;44020;50.890;15.796;2022-11-20T04:47:02;97179.88;;;-6.72;72.72
58223;BME280;44020;50.890;15.796;2022-11-20T04:49:29;97179.89;;;-6.73;72.76
58223;BME280;44020;50.890;15.796;2022-11-20T04:51:58;97182.27;;;-6.71;72.68
58223;BME280;44020;50.890;15.796;2022-11-20T04:54:25;97183.64;;;-6.70;72.70
58223;BME280;44020;50.890;15.796;2022-11-20T04:56:52;97178.45;;;-6.67;72.76
58223;BME280;44020;50.890;15.796;2022-11-20T04:59:20;97180.83;;;-6.64;72.68
58223;BME280;44020;50.890;15.796;2022-11-20T05:01:47;97178.27;;;-6.67;72.36
58223;BME280;44020;50.890;15.796;2022-11-20T05:04:14;97176.95;;;-6.73;72.29
58223;BME280;44020;50.890;15.796;2022-11-20T05:06:41;97176.77;;;-6.72;72.47
58223;BME280;44020;50.890;15.796;2022-11-20T05:09:08;97178.27;;;-6.68;72.65
58223;BME280;44020;50.890;15.796;2022-11-20T05:11:36;97180.02;;;-6.69;72.49
58223;BME280;44020;50.890;15.796;2022-11-20T05:14:03;97175.70;;;-6.71;72.28
58223;BME280;44020;50.890;15.796;2022-11-20T05:16:30;97172.76;;;-6.69;72.37
58223;BME280;44020;50.890;15.796;2022-11-20T05:18:57;97172.92;;;-6.70;72.52
58223;BME280;44020;50.890;15.796;2022-11-20T05:21:24;97171.20;;;-6.68;72.22
58223;BME280;44020;50.890;15.796;2022-11-20T05:23:51;97167.91;;;-6.67;72.35
58223;BME280;44020;50.890;15.796;2022-11-20T05:26:21;97168.09;;;-6.68;72.20
58223;BME280;44020;50.890;15.796;2022-11-20T05:28:49;97165.33;;;-6.69;72.18
58223;BME280;44020;50.890;15.796;2022-11-20T05:31:19;97168.68;;;-6.75;72.25
58223;BME280;44020;50.890;15.796;2022-11-20T05:33:46;97168.23;;;-6.83;72.02
58223;BME280;44020;50.890;15.796;2022-11-20T05:36:15;97166.94;;;-6.90;72.14
58223;BME280;44020;50.890;15.796;2022-11-20T05:38:43;97165.23;;;-6.93;72.11
58223;BME280;44020;50.890;15.796;2022-11-20T05:41:13;97163.65;;;-6.91;72.40
58223;BME280;44020;50.890;15.796;2022-11-20T05:43:44;97159.67;;;-6.89;72.46
58223;BME280;44020;50.890;15.796;2022-11-20T05:46:14;97158.80;;;-6.88;72.34
58223;BME280;44020;50.890;15.796;2022-11-20T05:48:43;97157.23;;;-6.86;72.54
58223;BME280;44020;50.890;15.796;2022-11-20T05:51:13;97156.66;;;-6.83;72.44
58223;BME280;44020;50.890;15.796;2022-11-20T05:53:42;97150.11;;;-6.83;72.20
58223;BME280;44020;50.890;15.796;2022-11-20T05:56:12;97146.85;;;-6.84;72.40
58223;BME280;44020;50.890;15.796;2022-11-20T05:58:40;97143.70;;;-6.82;72.27
58223;BME280;44020;50.890;15.796;2022-11-20T06:01:18;97138.88;;;-6.83;72.36
58223;BME280;44020;50.890;15.796;2022-11-20T06:03:45;97137.56;;;-6.88;72.31
58223;BME280;44020;50.890;15.796;2022-11-20T06:06:15;97134.82;;;-6.92;72.16
58223;BME280;44020;50.890;15.796;2022-11-20T06:08:44;97135.01;;;-6.91;72.23
58223;BME280;44020;50.890;15.796;2022-11-20T06:11:13;97133.52;;;-6.98;72.19
58223;BME280;44020;50.890;15.796;2022-11-20T06:13:41;97133.50;;;-6.96;72.33
58223;BME280;44020;50.890;15.796;2022-11-20T06:16:09;97134.31;;;-6.92;72.40
58223;BME280;44020;50.890;15.796;2022-11-20T06:18:37;97137.61;;;-6.94;72.08
58223;BME280;44020;50.890;15.796;2022-11-20T06:21:10;97141.47;;;-7.00;72.15
58223;BME280;44020;50.890;15.796;2022-11-20T06:23:38;97143.57;;;-7.03;72.35
58223;BME280;44020;50.890;15.796;2022-11-20T06:26:20;97146.84;;;-7.00;72.44
58223;BME280;44020;50.890;15.796;2022-11-20T06:28:49;97151.65;;;-6.99;72.23
58223;BME280;44020;50.890;15.796;2022-11-20T06:31:18;97147.90;;;-7.03;72.33
58223;BME280;44020;50.890;15.796;2022-11-20T06:33:46;97154.64;;;-7.04;72.22
58223;BME280;44020;50.890;15.796;2022-11-20T06:36:16;97150.51;;;-7.07;72.20
58223;BME280;44020;50.890;15.796;2022-11-20T06:38:43;97150.17;;;-7.07;72.23
58223;BME280;44020;50.890;15.796;2022-11-20T06:41:21;97152.77;;;-7.08;72.40
58223;BME280;44020;50.890;15.796;2022-11-20T06:43:49;97149.33;;;-7.08;72.23
58223;BME280;44020;50.890;15.796;2022-11-20T06:46:17;97150.00;;;-7.06;72.36
58223;BME280;44020;50.890;15.796;2022-11-20T06:48:47;97145.17;;;-7.07;72.40
58223;BME280;44020;50.890;15.796;2022-11-20T06:51:15;97142.74;;;-7.06;72.39
58223;BME280;44020;50.890;15.796;2022-11-20T06:53:42;97136.71;;;-7.06;72.40
58223;BME280;44020;50.890;15.796;2022-11-20T06:56:09;97135.33;;;-7.06;72.31
58223;BME280;44020;50.890;15.796;2022-11-20T06:58:36;97132.20;;;-7.03;72.47
58223;BME280;44020;50.890;15.796;2022-11-20T07:01:06;97133.70;;;-6.99;72.47
58223;BME280;44020;50.890;15.796;2022-11-20T07:03:34;97129.92;;;-7.01;72.11
58223;BME280;44020;50.890;15.796;2022-11-20T07:06:02;97124.76;;;-7.02;72.51
58223;BME280;44020;50.890;15.796;2022-11-20T07:08:30;97128.19;;;-7.00;72.27
58223;BME280;44020;50.890;15.796;2022-11-20T07:10:59;97126.10;;;-6.99;72.39
58223;BME280;44020;50.890;15.796;2022-11-20T07:13:29;97124.23;;;-7.02;72.37
58223;BME280;44020;50.890;15.796;2022-11-20T07:16:05;97127.96;;;-6.95;72.79
58223;BME280;44020;50.890;15.796;2022-11-20T07:18:32;97125.13;;;-6.88;72.75
58223;BME280;44020;50.890;15.796;2022-11-20T07:21:04;97125.05;;;-6.81;72.61
58223;BME280;44020;50.890;15.796;2022-11-20T07:23:32;97123.10;;;-6.77;72.63
58223;BME280;44020;50.890;15.796;2022-11-20T07:26:07;97122.75;;;-6.75;72.83
58223;BME280;44020;50.890;15.796;2022-11-20T07:28:35;97120.95;;;-6.69;72.90
58223;BME280;44020;50.890;15.796;2022-11-20T07:31:03;97120.17;;;-6.62;72.96
58223;BME280;44020;50.890;15.796;2022-11-20T07:33:31;97119.89;;;-6.54;72.98
58223;BME280;44020;50.890;15.796;2022-11-20T07:35:59;97119.81;;;-6.48;73.11
58223;BME280;44020;50.890;15.796;2022-11-20T07:38:26;97113.36;;;-6.43;73.33
58223;BME280;44020;50.890;15.796;2022-11-20T07:40:55;97112.27;;;-6.39;73.32
58223;BME280;44020;50.890;15.796;2022-11-20T07:43:23;97105.80;;;-6.33;73.40
58223;BME280;44020;50.890;15.796;2022-11-20T07:45:52;97105.54;;;-6.26;73.58
58223;BME280;44020;50.890;15.796;2022-11-20T07:48:19;97104.59;;;-6.19;73.46
58223;BME280;44020;50.890;15.796;2022-11-20T07:50:46;97101.06;;;-6.14;73.48
58223;BME280;44020;50.890;15.796;2022-11-20T07:53:13;97098.38;;;-6.09;73.62
58223;BME280;44020;50.890;15.796;2022-11-20T07:55:40;97090.16;;;-6.03;73.64
58223;BME280;44020;50.890;15.796;2022-11-20T07:58:07;97084.20;;;-5.97;73.65
58223;BME280;44020;50.890;15.796;2022-11-20T08:00:34;97082.34;;;-5.91;73.89
58223;BME280;44020;50.890;15.796;2022-11-20T08:03:05;97080.02;;;-5.86;73.81
58223;BME280;44020;50.890;15.796;2022-11-20T08:05:33;97083.61;;;-5.82;73.81
58223;BME280;44020;50.890;15.796;2022-11-20T08:08:00;97087.50;;;-5.77;74.06
58223;BME280;44020;50.890;15.796;2022-11-20T08:10:27;97083.45;;;-5.73;74.09
58223;BME280;44020;50.890;15.796;2022-11-20T08:12:54;97083.77;;;-5.71;74.11
58223;BME280;44020;50.890;15.796;2022-11-20T08:15:40;97080.59;;;-5.67;74.06
58223;BME280;44020;50.890;15.796;2022-11-20T08:18:10;97075.86;;;-5.63;74.26
58223;BME280;44020;50.890;15.796;2022-11-20T08:20:37;97067.66;;;-5.59;74.35
58223;BME280;44020;50.890;15.796;2022-11-20T08:23:06;97065.70;;;-5.56;74.47
58223;BME280;44020;50.890;15.796;2022-11-20T08:25:36;97064.59;;;-5.51;74.71
58223;BME280;44020;50.890;15.796;2022-11-20T08:28:06;97066.38;;;-5.45;74.70
58223;BME280;44020;50.890;15.796;2022-11-20T08:30:34;97064.69;;;-5.37;74.86
58223;BME280;44020;50.890;15.796;2022-11-20T08:33:07;97061.12;;;-5.31;74.86
58223;BME280;44020;50.890;15.796;2022-11-20T08:35:35;97060.30;;;-5.24;74.99
58223;BME280;44020;50.890;15.796;2022-11-20T08:38:06;97058.60;;;-5.17;75.02
58223;BME280;44020;50.890;15.796;2022-11-20T08:40:33;97057.30;;;-5.12;75.00
58223;BME280;44020;50.890;15.796;2022-11-20T08:43:01;97052.02;;;-5.07;75.07
58223;BME280;44020;50.890;15.796;2022-11-20T08:45:28;97051.36;;;-5.00;75.10
58223;BME280;44020;50.890;15.796;2022-11-20T08:48:00;97053.44;;;-4.91;75.28
58223;BME280;44020;50.890;15.796;2022-11-20T08:50:27;97051.05;;;-4.84;75.38
58223;BME280;44020;50.890;15.796;2022-11-20T08:52:54;97045.34;;;-4.75;75.45
58223;BME280;44020;50.890;15.796;2022-11-20T08:55:22;97045.17;;;-4.67;75.59
58223;BME280;44020;50.890;15.796;2022-11-20T08:57:49;97042.21;;;-4.58;75.58
58223;BME280;44020;50.890;15.796;2022-11-20T09:00:16;97043.08;;;-4.51;75.73
58223;BME280;44020;50.890;15.796;2022-11-20T09:02:43;97045.14;;;-4.42;75.74
58223;BME280;44020;50.890;15.796;2022-11-20T09:05:10;97045.65;;;-4.33;75.59
58223;BME280;44020;50.890;15.796;2022-11-20T09:07:37;97046.88;;;-4.26;75.60
58223;BME280;44020;50.890;15.796;2022-11-20T09:10:05;97041.85;;;-4.18;75.82
58223;BME280;44020;50.890;15.796;2022-11-20T09:12:32;97038.56;;;-4.11;75.83
58223;BME280;44020;50.890;15.796;2022-11-20T09:14:59;97037.58;;;-4.05;75.72
58223;BME280;44020;50.890;15.796;2022-11-20T09:17:26;97039.85;;;-3.99;75.83
58223;BME280;44020;50.890;15.796;2022-11-20T09:19:53;97042.28;;;-3.91;75.95
58223;BME280;44020;50.890;15.796;2022-11-20T09:22:20;97041.59;;;-3.84;76.02
58223;BME280;44020;50.890;15.796;2022-11-20T09:24:47;97039.19;;;-3.78;75.76
58223;BME280;44020;50.890;15.796;2022-11-20T09:27:16;97036.36;;;-3.69;75.88
58223;BME280;44020;50.890;15.796;2022-11-20T09:29:52;97034.42;;;-3.61;75.86
58223;BME280;44020;50.890;15.796;2022-11-20T09:32:19;97037.77;;;-3.56;75.83
58223;BME280;44020;50.890;15.796;2022-11-20T09:34:46;97034.98;;;-3.49;75.67
58223;BME280;44020;50.890;15.796;2022-11-20T09:37:13;97028.85;;;-3.40;75.82
58223;BME280;44020;50.890;15.796;2022-11-20T09:39:40;97030.53;;;-3.31;76.15
58223;BME280;44020;50.890;15.796;2022-11-20T09:42:45;97030.35;;;-3.24;75.89
58223;BME280;44020;50.890;15.796;2022-11-20T09:45:23;97031.17;;;-3.16;76.05
58223;BME280;44020;50.890;15.796;2022-11-20T09:56:17;97013.71;;;-2.81;75.60
58223;BME280;44020;50.890;15.796;2022-11-20T09:58:49;97013.39;;;-2.76;75.84
58223;BME280;44020;50.890;15.796;2022-11-20T10:01:19;97008.48;;;-2.68;75.75
58223;BME280;44020;50.890;15.796;2022-11-20T10:04:09;97001.64;;;-2.60;75.82
58223;BME280;44020;50.890;15.796;2022-11-20T10:06:50;96993.39;;;-2.46;75.94
58223;BME280;44020;50.890;15.796;2022-11-20T10:09:30;96994.88;;;-2.32;75.91
58223;BME280;44020;50.890;15.796;2022-11-20T10:20:21;96975.44;;;-1.95;75.59
58223;BME280;44020;50.890;15.796;2022-11-20T10:28:43;96970.34;;;-1.67;75.03
58223;BME280;44020;50.890;15.796;2022-11-20T10:31:35;96967.80;;;-1.59;74.89
58223;BME280;44020;50.890;15.796;2022-11-20T10:34:17;96965.39;;;-1.49;74.73
58223;BME280;44020;50.890;15.796;2022-11-20T10:36:59;96957.83;;;-1.41;74.53
58223;BME280;44020;50.890;15.796;2022-11-20T10:39:58;96963.87;;;-1.35;74.54
58223;BME280;44020;50.890;15.796;2022-11-20T10:42:43;96949.31;;;-1.28;74.42
58223;BME280;44020;50.890;15.796;2022-11-20T10:47:55;96942.60;;;-1.15;74.40
58223;BME280;44020;50.890;15.796;2022-11-20T10:50:23;96940.41;;;-1.08;74.31
58223;BME280;44020;50.890;15.796;2022-11-20T10:53:02;96939.14;;;-1.01;74.17
58223;BME280;44020;50.890;15.796;2022-11-20T10:55:42;96932.91;;;-0.93;74.06
58223;BME280;44020;50.890;15.796;2022-11-20T11:00:45;96925.95;;;-0.80;73.46
58223;BME280;44020;50.890;15.796;2022-11-20T11:03:28;96922.54;;;-0.72;73.28
58223;BME280;44020;50.890;15.796;2022-11-20T11:06:03;96919.80;;;-0.65;73.35
58223;BME280;44020;50.890;15.796;2022-11-20T11:08:43;96924.61;;;-0.58;73.38
58223;BME280;44020;50.890;15.796;2022-11-20T11:11:20;96919.71;;;-0.49;73.54
58223;BME280;44020;50.890;15.796;2022-11-20T11:13:48;96922.31;;;-0.39;73.42
58223;BME280;44020;50.890;15.796;2022-11-20T11:16:33;96922.38;;;-0.32;73.28
58223;BME280;44020;50.890;15.796;2022-11-20T11:19:19;96925.88;;;-0.24;72.99
58223;BME280;44020;50.890;15.796;2022-11-20T11:21:51;96921.20;;;-0.16;73.00
58223;BME280;44020;50.890;15.796;2022-11-20T11:24:29;96920.91;;;-0.08;72.94
58223;BME280;44020;50.890;15.796;2022-11-20T11:27:02;96919.25;;;-0.02;72.64
58223;BME280;44020;50.890;15.796;2022-11-20T11:29:33;96920.44;;;0.03;72.44
58223;BME280;44020;50.890;15.796;2022-11-20T11:32:14;96918.30;;;0.08;72.13
58223;BME280;44020;50.890;15.796;2022-11-20T11:34:42;96918.88;;;0.11;72.04
58223;BME280;44020;50.890;15.796;2022-11-20T11:37:17;96914.91;;;0.14;71.86
58223;BME280;44020;50.890;15.796;2022-11-20T11:39:46;96912.80;;;0.19;71.92
58223;BME280;44020;50.890;15.796;2022-11-20T11:42:17;96906.92;;;0.26;71.76
58223;BME280;44020;50.890;15.796;2022-11-20T11:44:47;96902.95;;;0.33;71.75
58223;BME280;44020;50.890;15.796;2022-11-20T11:50:17;96899.63;;;0.42;71.58
58223;BME280;44020;50.890;15.796;2022-11-20T11:55:17;96907.76;;;0.59;71.60
58223;BME280;44020;50.890;15.796;2022-11-20T11:58:13;96913.36;;;0.72;71.67
58223;BME280;44020;50.890;15.796;2022-11-20T12:00:53;96910.92;;;0.83;71.25
58223;BME280;44020;50.890;15.796;2022-11-20T12:03:27;96902.48;;;0.92;71.17
58223;BME280;44020;50.890;15.796;2022-11-20T12:05:59;96893.73;;;0.92;70.66
58223;BME280;44020;50.890;15.796;2022-11-20T12:08:43;96884.67;;;0.88;70.57
58223;BME280;44020;50.890;15.796;2022-11-20T12:16:37;96877.50;;;0.68;69.54
58223;BME280;44020;50.890;15.796;2022-11-20T12:19:13;96880.74;;;0.61;69.51
58223;BME280;44020;50.890;15.796;2022-11-20T12:25:08;96881.33;;;0.56;69.47
58223;BME280;44020;50.890;15.796;2022-11-20T12:30:24;96865.48;;;0.55;69.72
58223;BME280;44020;50.890;15.796;2022-11-20T12:39:23;96868.20;;;0.65;69.54
58223;BME280;44020;50.890;15.796;2022-11-20T12:53:05;96851.08;;;0.69;69.15
58223;BME280;44020;50.890;15.796;2022-11-20T12:59:02;96847.77;;;0.76;68.90
58223;BME280;44020;50.890;15.796;2022-11-20T13:02:01;96839.34;;;0.77;68.86
58223;BME280;44020;50.890;15.796;2022-11-20T13:07:07;96824.67;;;0.88;68.75
58223;BME280;44020;50.890;15.796;2022-11-20T13:09:42;96820.48;;;0.92;68.90
58223;BME280;44020;50.890;15.796;2022-11-20T13:12:23;96821.05;;;0.99;68.93
58223;BME280;44020;50.890;15.796;2022-11-20T13:15:17;96819.63;;;1.03;68.82
58223;BME280;44020;50.890;15.796;2022-11-20T13:20:18;96810.09;;;1.12;68.22
58223;BME280;44020;50.890;15.796;2022-11-20T13:22:53;96813.79;;;1.15;68.15
58223;BME280;44020;50.890;15.796;2022-11-20T13:27:50;96819.02;;;1.19;67.56
58223;BME280;44020;50.890;15.796;2022-11-20T13:30:23;96816.56;;;1.23;67.60
58223;BME280;44020;50.890;15.796;2022-11-20T13:32:56;96813.19;;;1.28;67.32
58223;BME280;44020;50.890;15.796;2022-11-20T13:35:32;96808.58;;;1.25;67.17
58223;BME280;44020;50.890;15.796;2022-11-20T13:38:11;96811.40;;;1.21;67.11
58223;BME280;44020;50.890;15.796;2022-11-20T13:40:51;96806.59;;;1.16;67.08
58223;BME280;44020;50.890;15.796;2022-11-20T13:43:40;96806.36;;;1.14;67.24
58223;BME280;44020;50.890;15.796;2022-11-20T13:46:09;96808.25;;;1.07;67.11
58223;BME280;44020;50.890;15.796;2022-11-20T13:48:41;96808.38;;;1.00;67.23
58223;BME280;44020;50.890;15.796;2022-11-20T13:54:27;96809.73;;;0.82;67.11
58223;BME280;44020;50.890;15.796;2022-11-20T14:00:17;96807.36;;;0.69;67.22
58223;BME280;44020;50.890;15.796;2022-11-20T14:03:36;96812.09;;;0.65;67.34
58223;BME280;44020;50.890;15.796;2022-11-20T14:05:48;96807.40;;;0.64;67.20
58223;BME280;44020;50.890;15.796;2022-11-20T14:08:42;96811.13;;;0.63;67.25
58223;BME280;44020;50.890;15.796;2022-11-20T14:11:13;96813.90;;;0.60;67.55
58223;BME280;44020;50.890;15.796;2022-11-20T14:13:57;96811.05;;;0.57;67.51
58223;BME280;44020;50.890;15.796;2022-11-20T14:16:26;96810.74;;;0.56;67.63
58223;BME280;44020;50.890;15.796;2022-11-20T14:18:54;96815.90;;;0.54;67.74
58223;BME280;44020;50.890;15.796;2022-11-20T14:21:28;96816.58;;;0.51;67.69
58223;BME280;44020;50.890;15.796;2022-11-20T14:24:05;96817.49;;;0.46;67.81
58223;BME280;44020;50.890;15.796;2022-11-20T14:26:33;96819.92;;;0.42;68.08
58223;BME280;44020;50.890;15.796;2022-11-20T14:29:01;96818.34;;;0.38;68.05
58223;BME280;44020;50.890;15.796;2022-11-20T14:31:28;96815.86;;;0.35;68.31
58223;BME280;44020;50.890;15.796;2022-11-20T14:33:56;96816.50;;;0.33;68.20
58223;BME280;44020;50.890;15.796;2022-11-20T14:36:25;96813.75;;;0.28;68.09
58223;BME280;44020;50.890;15.796;2022-11-20T14:38:53;96815.78;;;0.25;68.37
58223;BME280;44020;50.890;15.796;2022-11-20T14:41:23;96816.35;;;0.20;68.50